createdAt,value
2023-12-17T00:00:05.149Z,96433.25
2023-12-17T00:02:32.067Z,96439.28
2023-12-17T00:04:59.405Z,96445.38
2023-12-17T00:07:26.212Z,96440.50
2023-12-17T00:09:53.353Z,96443.34
2023-12-17T00:12:20.324Z,96433.13
2023-12-17T00:14:47.266Z,96433.94
2023-12-17T00:17:14.657Z,96442.78
2023-12-17T00:19:42.519Z,96447.19
2023-12-17T00:22:09.889Z,96440.47
2023-12-17T00:24:36.793Z,96437.47
2023-12-17T00:27:04.882Z,96425.94
2023-12-17T00:29:31.795Z,96431.69
2023-12-17T00:32:01.146Z,96438.28
2023-12-17T00:34:29.034Z,96446.50
2023-12-17T00:36:56.031Z,96435.59
2023-12-17T00:39:22.915Z,96428.72
2023-12-17T00:42:06.694Z,96428.72
2023-12-17T00:44:33.872Z,96433.19
2023-12-17T00:47:01.096Z,96429.63
2023-12-17T00:49:28.209Z,96424.63
2023-12-17T00:51:55.099Z,96423.47
2023-12-17T00:54:23.253Z,96426.53
2023-12-17T00:56:50.235Z,96432.47
2023-12-17T00:59:17.432Z,96427.66
2023-12-17T01:01:44.585Z,96427.13
2023-12-17T01:04:11.324Z,96431.91
2023-12-17T01:06:38.182Z,96417.75
2023-12-17T01:09:05.128Z,96417.97
2023-12-17T01:11:33.245Z,96425.34
2023-12-17T01:17:55.418Z,96424.56
2023-12-17T01:20:22.305Z,96423.63
2023-12-17T01:22:49.275Z,96422.72
2023-12-17T01:25:16.189Z,96429.06
2023-12-17T01:27:43.054Z,96427.09
2023-12-17T01:30:14.890Z,96418.09
2023-12-17T01:32:42.437Z,96411.88
2023-12-17T01:35:09.240Z,96414.91
2023-12-17T01:37:36.280Z,96425.34
2023-12-17T01:40:03.354Z,96420.91
2023-12-17T01:42:31.758Z,96431.28
2023-12-17T01:44:58.989Z,96422.03
2023-12-17T01:47:26.114Z,96423.19
2023-12-17T01:49:53.131Z,96422.44
2023-12-17T01:52:20.002Z,96426.88
2023-12-17T01:54:48.349Z,96412.75
2023-12-17T01:57:15.281Z,96410.13
2023-12-17T01:59:42.063Z,96406.84
2023-12-17T02:02:11.626Z,96417.09
2023-12-17T02:04:39.486Z,96409.59
2023-12-17T02:07:07.510Z,96408.66
2023-12-17T02:09:34.349Z,96420.41
2023-12-17T02:12:01.322Z,96416.53
2023-12-17T02:14:28.543Z,96409.34
2023-12-17T02:16:55.313Z,96409.94
2023-12-17T02:19:22.365Z,96412.47
2023-12-17T02:25:43.773Z,96397.94
2023-12-17T02:28:10.636Z,96402.56
2023-12-17T02:30:38.664Z,96416.56
2023-12-17T02:36:59.624Z,96412.75
2023-12-17T02:39:26.696Z,96411.44
2023-12-17T02:41:53.561Z,96401.78
2023-12-17T02:44:21.277Z,96403.09
2023-12-17T02:46:49.277Z,96398.84
2023-12-17T02:49:16.798Z,96402.09
2023-12-17T02:51:44.434Z,96399.06
2023-12-17T02:54:14.762Z,96389.94
2023-12-17T02:56:42.127Z,96395.97
2023-12-17T02:59:15.916Z,96407.91
2023-12-17T03:01:44.570Z,96400.97
2023-12-17T03:04:14.867Z,96408.31
2023-12-17T03:06:44.465Z,96402.28
2023-12-17T03:09:11.646Z,96412.81
2023-12-17T03:11:39.903Z,96409.78
2023-12-17T03:14:09.609Z,96418.03
2023-12-17T03:16:36.461Z,96416.78
2023-12-17T03:19:03.696Z,96415.72
2023-12-17T03:21:41.308Z,96407.06
2023-12-17T03:24:08.381Z,96413.16
2023-12-17T03:26:40.503Z,96411.19
2023-12-17T03:29:21.702Z,96411.06
2023-12-17T03:31:48.754Z,96416.53
2023-12-17T03:34:15.973Z,96422.84
2023-12-17T03:36:42.776Z,96428.88
2023-12-17T03:39:10.471Z,96418.59
2023-12-17T03:41:37.445Z,96426.25
2023-12-17T03:44:05.369Z,96415.91
2023-12-17T03:46:32.198Z,96421.19
2023-12-17T03:49:00.174Z,96420.09
2023-12-17T03:51:27.434Z,96427.13
2023-12-17T03:53:55.915Z,96422.97
2023-12-17T03:56:22.724Z,96419.91
2023-12-17T03:58:50.701Z,96416.88
2023-12-17T04:01:17.909Z,96427.44
2023-12-17T04:03:45.130Z,96436.81
2023-12-17T04:06:13.689Z,96441.63
2023-12-17T04:08:43.554Z,96448.50
2023-12-17T04:11:10.788Z,96445.41
2023-12-17T04:13:58.874Z,96440.13
2023-12-17T04:17:03.340Z,96437.13
2023-12-17T04:19:30.379Z,96430.22
2023-12-17T04:21:58.874Z,96437.06
2023-12-17T04:24:25.720Z,96436.16
2023-12-17T04:26:52.631Z,96433.53
2023-12-17T04:29:20.670Z,96438.75
2023-12-17T04:31:48.383Z,96435.44
2023-12-17T04:34:15.651Z,96443.81
2023-12-17T04:36:43.877Z,96458.31
2023-12-17T04:39:10.866Z,96453.97
2023-12-17T04:41:38.150Z,96449.19
2023-12-17T04:44:04.967Z,96453.44
2023-12-17T04:46:31.750Z,96449.69
2023-12-17T04:49:35.549Z,96455.00
2023-12-17T04:52:02.538Z,96448.13
2023-12-17T04:54:29.795Z,96453.69
2023-12-17T04:56:56.709Z,96448.66
2023-12-17T04:59:23.896Z,96452.13
2023-12-17T05:01:51.859Z,96453.84
2023-12-17T05:04:20.132Z,96455.13
2023-12-17T05:06:48.095Z,96454.22
2023-12-17T05:09:16.034Z,96457.41
2023-12-17T05:11:43.208Z,96450.84
2023-12-17T05:14:10.279Z,96456.66
2023-12-17T05:16:37.163Z,96446.81
2023-12-17T05:19:05.405Z,96453.53
2023-12-17T05:21:32.450Z,96461.63
2023-12-17T05:23:59.273Z,96458.19
2023-12-17T05:26:26.196Z,96457.72
2023-12-17T05:28:52.974Z,96453.63
2023-12-17T05:31:20.820Z,96457.44
2023-12-17T05:33:49.185Z,96461.91
2023-12-17T05:36:17.578Z,96460.53
2023-12-17T05:38:47.373Z,96466.72
2023-12-17T05:41:14.952Z,96469.44
2023-12-17T05:43:41.756Z,96461.94
2023-12-17T05:46:08.995Z,96452.97
2023-12-17T05:48:37.133Z,96453.84
2023-12-17T05:51:08.319Z,96457.88
2023-12-17T05:53:41.440Z,96446.34
2023-12-17T05:56:14.310Z,96455.13
2023-12-17T05:58:41.248Z,96457.66
2023-12-17T06:01:10.323Z,96459.41
2023-12-17T06:03:38.902Z,96472.63
2023-12-17T06:06:07.866Z,96461.06
2023-12-17T06:08:35.561Z,96465.59
2023-12-17T06:11:02.418Z,96463.44
2023-12-17T06:13:29.432Z,96462.84
2023-12-17T06:15:56.433Z,96464.63
2023-12-17T06:18:23.495Z,96467.28
2023-12-17T06:20:50.396Z,96464.47
2023-12-17T06:23:17.374Z,96464.94
2023-12-17T06:25:45.484Z,96459.97
2023-12-17T06:28:12.226Z,96461.94
2023-12-17T06:30:40.569Z,96463.69
2023-12-17T06:33:07.480Z,96461.75
2023-12-17T06:35:34.420Z,96460.06
2023-12-17T06:38:01.391Z,96461.91
2023-12-17T06:40:29.467Z,96465.75
2023-12-17T06:42:56.330Z,96465.34
2023-12-17T06:45:24.389Z,96475.47
2023-12-17T06:47:51.325Z,96470.28
2023-12-17T06:50:18.283Z,96472.78
2023-12-17T06:52:45.522Z,96471.13
2023-12-17T06:55:12.336Z,96466.97
2023-12-17T06:57:39.715Z,96475.09
2023-12-17T07:00:09.249Z,96474.78
2023-12-17T07:02:37.702Z,96473.94
2023-12-17T07:05:04.839Z,96474.78
2023-12-17T07:07:31.987Z,96479.19
2023-12-17T07:09:59.843Z,96470.72
2023-12-17T07:12:26.743Z,96472.53
2023-12-17T07:14:53.798Z,96482.72
2023-12-17T07:17:20.713Z,96481.44
2023-12-17T07:23:41.043Z,96478.91
2023-12-17T07:26:07.804Z,96476.19
2023-12-17T07:28:35.005Z,96478.81
2023-12-17T07:31:02.258Z,96480.19
2023-12-17T07:33:29.256Z,96476.19
2023-12-17T07:35:56.137Z,96478.38
2023-12-17T07:38:22.955Z,96473.28
2023-12-17T07:40:49.997Z,96469.94
2023-12-17T07:43:17.128Z,96471.97
2023-12-17T07:45:43.943Z,96467.09
2023-12-17T07:48:10.971Z,96470.56
2023-12-17T07:50:37.996Z,96470.06
2023-12-17T07:53:04.887Z,96460.19
2023-12-17T07:55:31.662Z,96469.00
2023-12-17T07:57:58.515Z,96472.31
2023-12-17T08:00:25.372Z,96473.59
2023-12-17T08:02:52.663Z,96479.16
2023-12-17T08:05:20.563Z,96477.09
2023-12-17T08:07:47.454Z,96474.44
2023-12-17T08:10:14.247Z,96475.28
2023-12-17T08:12:41.598Z,96473.91
2023-12-17T08:15:10.075Z,96482.16
2023-12-17T08:17:39.056Z,96475.84
2023-12-17T08:20:07.258Z,96471.34
2023-12-17T08:22:34.054Z,96474.56
2023-12-17T08:25:01.938Z,96466.38
2023-12-17T08:27:28.906Z,96468.50
2023-12-17T08:29:56.101Z,96470.03
2023-12-17T08:32:23.393Z,96471.50
2023-12-17T08:34:50.307Z,96471.63
2023-12-17T08:37:18.444Z,96485.22
2023-12-17T08:39:45.269Z,96475.91
2023-12-17T08:42:12.449Z,96470.09
2023-12-17T08:44:40.429Z,96470.88
2023-12-17T08:47:07.392Z,96471.53
2023-12-17T08:49:34.823Z,96477.16
2023-12-17T08:52:01.841Z,96470.84
2023-12-17T08:54:28.794Z,96466.78
2023-12-17T08:56:55.653Z,96473.38
2023-12-17T08:59:33.261Z,96473.44
2023-12-17T09:02:03.071Z,96471.47
2023-12-17T09:04:31.301Z,96477.94
2023-12-17T09:06:59.640Z,96466.28
2023-12-17T09:09:26.504Z,96474.94
2023-12-17T09:12:20.181Z,96474.94
2023-12-17T09:14:47.116Z,96487.19
2023-12-17T09:17:13.958Z,96491.22
2023-12-17T09:19:40.890Z,96489.31
2023-12-17T09:22:10.026Z,96482.22
2023-12-17T09:24:36.995Z,96479.81
2023-12-17T09:27:03.934Z,96492.00
2023-12-17T09:29:31.874Z,96493.81
2023-12-17T09:32:00.524Z,96491.03
2023-12-17T09:34:39.980Z,96497.13
2023-12-17T09:37:07.907Z,96495.25
2023-12-17T09:39:39.918Z,96488.59
2023-12-17T09:42:27.169Z,96483.41
2023-12-17T09:44:56.895Z,96488.03
2023-12-17T09:47:25.460Z,96493.50
2023-12-17T09:49:52.476Z,96489.91
2023-12-17T09:52:19.935Z,96495.34
2023-12-17T09:54:49.564Z,96489.63
2023-12-17T09:57:18.062Z,96483.66
2023-12-17T09:59:45.407Z,96480.59
2023-12-17T10:02:15.772Z,96477.00
2023-12-17T10:04:48.403Z,96469.88
2023-12-17T10:07:19.534Z,96476.66
2023-12-17T10:09:46.364Z,96486.38
2023-12-17T10:12:15.532Z,96477.16
2023-12-17T10:14:43.508Z,96478.69
2023-12-17T10:17:12.744Z,96480.56
2023-12-17T10:19:39.762Z,96463.91
2023-12-17T10:22:07.380Z,96469.91
2023-12-17T10:24:37.690Z,96457.34
2023-12-17T10:27:19.046Z,96458.28
2023-12-17T10:29:50.281Z,96460.22
2023-12-17T10:32:20.636Z,96454.25
2023-12-17T10:34:49.902Z,96453.44
2023-12-17T10:37:21.569Z,96451.44
2023-12-17T10:39:48.816Z,96447.44
2023-12-17T10:42:20.255Z,96436.31
2023-12-17T10:44:47.542Z,96439.25
2023-12-17T10:47:16.462Z,96432.28
2023-12-17T10:49:44.244Z,96432.09
2023-12-17T10:52:11.036Z,96440.06
2023-12-17T10:54:41.158Z,96440.56
2023-12-17T10:57:10.450Z,96430.31
2023-12-17T10:59:40.978Z,96424.91
2023-12-17T11:02:08.865Z,96430.72
2023-12-17T11:04:37.174Z,96428.81
2023-12-17T11:07:04.074Z,96432.50
2023-12-17T11:09:30.896Z,96421.81
2023-12-17T11:11:57.890Z,96425.63
2023-12-17T11:14:39.383Z,96423.00
2023-12-17T11:17:15.086Z,96426.00
2023-12-17T11:19:59.010Z,96424.88
2023-12-17T11:22:25.991Z,96425.91
2023-12-17T11:24:59.729Z,96416.31
2023-12-17T11:27:26.952Z,96415.22
2023-12-17T11:29:56.422Z,96417.94
2023-12-17T11:32:35.112Z,96405.47
2023-12-17T11:35:01.913Z,96410.25
2023-12-17T11:37:29.372Z,96409.09
2023-12-17T11:39:56.131Z,96403.28
2023-12-17T11:42:23.023Z,96408.53
2023-12-17T11:44:51.084Z,96413.63
2023-12-17T11:47:25.189Z,96411.91
2023-12-17T11:49:52.080Z,96407.28
2023-12-17T11:52:18.871Z,96400.50
2023-12-17T11:54:45.696Z,96402.19
2023-12-17T11:57:30.754Z,96392.78
2023-12-17T11:59:58.070Z,96395.78
2023-12-17T12:02:25.828Z,96394.91
2023-12-17T12:04:53.681Z,96390.06
2023-12-17T12:07:21.574Z,96388.84
2023-12-17T12:09:49.322Z,96388.31
2023-12-17T12:12:25.139Z,96384.44
2023-12-17T12:14:52.296Z,96378.47
2023-12-17T12:17:37.373Z,96374.56
2023-12-17T12:20:08.935Z,96378.84
2023-12-17T12:22:45.366Z,96378.91
2023-12-17T12:25:18.945Z,96381.28
2023-12-17T12:28:23.534Z,96378.50
2023-12-17T12:30:51.563Z,96375.31
2023-12-17T12:33:18.902Z,96379.28
2023-12-17T12:35:46.616Z,96379.25
2023-12-17T12:38:23.701Z,96378.91
2023-12-17T12:40:51.255Z,96371.25
2023-12-17T12:43:18.318Z,96376.47
2023-12-17T12:45:52.444Z,96379.13
2023-12-17T12:48:26.121Z,96374.13
2023-12-17T12:50:53.190Z,96372.41
2023-12-17T12:53:26.041Z,96370.09
2023-12-17T12:55:54.129Z,96366.03
2023-12-17T12:58:21.067Z,96356.56
2023-12-17T13:00:48.746Z,96351.00
2023-12-17T13:03:16.453Z,96354.91
2023-12-17T13:05:43.808Z,96353.19
2023-12-17T13:08:10.777Z,96352.09
2023-12-17T13:10:37.615Z,96351.81
2023-12-17T13:13:06.194Z,96346.53
2023-12-17T13:15:35.383Z,96342.75
2023-12-17T13:18:04.537Z,96348.63
2023-12-17T13:20:58.542Z,96343.78
2023-12-17T13:23:25.817Z,96353.25
2023-12-17T13:25:53.392Z,96342.16
2023-12-17T13:28:21.096Z,96348.72
2023-12-17T13:30:48.173Z,96349.06
2023-12-17T13:33:17.970Z,96350.03
2023-12-17T13:35:45.160Z,96346.91
2023-12-17T13:38:12.879Z,96330.84
2023-12-17T13:40:41.320Z,96336.03
2023-12-17T13:43:08.221Z,96329.16
2023-12-17T13:45:35.149Z,96325.59
2023-12-17T13:48:01.989Z,96327.13
2023-12-17T13:50:29.060Z,96331.78
2023-12-17T13:52:56.108Z,96334.25
2023-12-17T13:55:23.016Z,96336.16
2023-12-17T13:57:50.056Z,96324.94
2023-12-17T14:00:17.940Z,96334.34
2023-12-17T14:02:44.923Z,96337.34
2023-12-17T14:05:14.339Z,96340.56
2023-12-17T14:07:42.092Z,96336.72
2023-12-17T14:10:09.106Z,96337.53
2023-12-17T14:12:36.165Z,96344.44
2023-12-17T14:15:03.363Z,96342.22
2023-12-17T14:17:30.272Z,96348.72
2023-12-17T14:19:57.121Z,96342.66
2023-12-17T14:22:24.268Z,96345.53
2023-12-17T14:24:52.349Z,96337.53
2023-12-17T14:27:19.832Z,96339.16
2023-12-17T14:29:47.398Z,96339.56
2023-12-17T14:32:17.371Z,96336.97
2023-12-17T14:34:59.297Z,96332.31
2023-12-17T14:37:26.109Z,96337.22
2023-12-17T14:39:52.929Z,96331.69
2023-12-17T14:42:19.997Z,96332.06
2023-12-17T14:44:49.659Z,96337.59
2023-12-17T14:47:16.893Z,96330.78
2023-12-17T14:49:44.299Z,96329.47
2023-12-17T14:52:12.359Z,96334.56
2023-12-17T14:54:39.498Z,96323.19
2023-12-17T14:57:06.499Z,96324.44
2023-12-17T14:59:33.879Z,96330.41
2023-12-17T15:02:00.855Z,96334.84
2023-12-17T15:04:28.056Z,96332.78
2023-12-17T15:06:55.308Z,96332.78
2023-12-17T15:09:23.099Z,96332.31
2023-12-17T15:11:50.593Z,96340.75
2023-12-17T15:14:20.119Z,96337.56
2023-12-17T15:16:48.626Z,96341.56
2023-12-17T15:19:17.951Z,96341.47
2023-12-17T15:21:53.814Z,96342.09
2023-12-17T15:24:20.872Z,96346.84
2023-12-17T15:27:30.194Z,96341.66
2023-12-17T15:29:57.241Z,96345.03
2023-12-17T15:32:24.465Z,96340.09
2023-12-17T15:34:58.270Z,96346.91
2023-12-17T15:37:25.641Z,96339.03
2023-12-17T15:39:52.717Z,96342.44
2023-12-17T15:42:19.579Z,96343.56
2023-12-17T15:44:46.774Z,96342.63
2023-12-17T15:47:13.652Z,96342.41
2023-12-17T15:49:40.584Z,96347.31
2023-12-17T15:52:09.020Z,96342.19
2023-12-17T15:54:35.839Z,96342.97
2023-12-17T15:57:02.968Z,96343.03
2023-12-17T15:59:30.413Z,96345.53
2023-12-17T16:02:01.550Z,96342.38
2023-12-17T16:04:28.432Z,96336.44
2023-12-17T16:06:55.264Z,96345.13
2023-12-17T16:09:23.904Z,96346.97
2023-12-17T16:11:53.759Z,96347.06
2023-12-17T16:14:20.640Z,96349.16
2023-12-17T16:16:48.621Z,96346.09
2023-12-17T16:19:27.807Z,96344.25
2023-12-17T16:21:55.549Z,96343.25
2023-12-17T16:24:22.437Z,96349.97
2023-12-17T16:26:50.630Z,96353.72
2023-12-17T16:29:17.517Z,96360.59
2023-12-17T16:31:46.364Z,96365.53
2023-12-17T16:34:13.548Z,96356.19
2023-12-17T16:36:41.690Z,96352.97
2023-12-17T16:39:08.773Z,96365.84
2023-12-17T16:41:36.252Z,96364.38
2023-12-17T16:44:05.981Z,96363.41
2023-12-17T16:46:33.136Z,96357.03
2023-12-17T16:52:28.241Z,96365.03
2023-12-17T16:54:56.125Z,96362.22
2023-12-17T16:57:23.016Z,96362.00
2023-12-17T16:59:49.963Z,96364.16
2023-12-17T17:02:16.828Z,96364.72
2023-12-17T17:04:44.065Z,96355.75
2023-12-17T17:07:10.866Z,96373.03
2023-12-17T17:09:38.226Z,96366.22
2023-12-17T17:12:05.348Z,96368.25
2023-12-17T17:14:32.216Z,96368.78
2023-12-17T17:16:59.139Z,96369.38
2023-12-17T17:19:26.004Z,96368.41
2023-12-17T17:21:56.013Z,96366.91
2023-12-17T17:24:22.946Z,96369.97
2023-12-17T17:26:49.800Z,96375.91
2023-12-17T17:29:16.939Z,96382.16
2023-12-17T17:32:03.814Z,96385.88
2023-12-17T17:34:49.920Z,96382.41
2023-12-17T17:37:36.281Z,96385.72
2023-12-17T17:40:04.901Z,96380.13
2023-12-17T17:42:31.813Z,96372.00
2023-12-17T17:44:58.660Z,96367.28
2023-12-17T17:47:25.532Z,96371.91
2023-12-17T17:49:52.403Z,96368.47
2023-12-17T17:52:19.340Z,96370.47
2023-12-17T17:54:49.782Z,96371.31
2023-12-17T17:57:17.879Z,96379.59
2023-12-17T17:59:45.095Z,96374.84
2023-12-17T18:02:12.279Z,96371.88
2023-12-17T18:04:39.482Z,96378.63
2023-12-17T18:07:06.321Z,96379.41
2023-12-17T18:09:34.079Z,96380.59
2023-12-17T18:12:01.178Z,96381.03
2023-12-17T18:14:28.005Z,96377.25
2023-12-17T18:16:54.841Z,96382.09
2023-12-17T18:19:21.742Z,96385.63
2023-12-17T18:21:48.517Z,96388.28
2023-12-17T18:24:15.365Z,96385.28
2023-12-17T18:26:43.877Z,96394.63
2023-12-17T18:29:11.217Z,96395.69
2023-12-17T18:31:38.073Z,96398.47
2023-12-17T18:34:04.956Z,96393.63
2023-12-17T18:36:32.288Z,96395.72
2023-12-17T18:38:59.154Z,96389.59
2023-12-17T18:41:26.513Z,96393.72
2023-12-17T18:43:53.269Z,96393.34
2023-12-17T18:46:21.034Z,96392.78
2023-12-17T18:48:48.954Z,96392.34
2023-12-17T18:51:17.023Z,96393.63
2023-12-17T18:53:44.104Z,96387.41
2023-12-17T18:56:11.518Z,96388.72
2023-12-17T18:58:38.689Z,96386.75
2023-12-17T19:01:05.775Z,96387.16
2023-12-17T19:03:32.712Z,96385.31
2023-12-17T19:05:59.568Z,96392.22
2023-12-17T19:08:26.347Z,96385.09
2023-12-17T19:10:54.040Z,96374.88
2023-12-17T19:13:21.213Z,96372.94
2023-12-17T19:15:48.151Z,96372.13
2023-12-17T19:18:16.549Z,96377.13
2023-12-17T19:20:43.667Z,96373.69
2023-12-17T19:23:10.957Z,96378.75
2023-12-17T19:25:37.831Z,96382.59
2023-12-17T19:28:04.960Z,96389.38
2023-12-17T19:30:33.225Z,96385.13
2023-12-17T19:33:00.259Z,96388.31
2023-12-17T19:35:27.537Z,96381.13
2023-12-17T19:37:54.657Z,96376.38
2023-12-17T19:40:21.563Z,96372.88
2023-12-17T19:42:48.415Z,96376.63
2023-12-17T19:45:15.805Z,96369.69
2023-12-17T19:47:42.774Z,96369.34
2023-12-17T19:50:10.203Z,96367.75
2023-12-17T19:52:38.115Z,96374.13
2023-12-17T19:55:07.258Z,96370.88
2023-12-17T19:57:34.120Z,96371.75
2023-12-17T20:00:01.167Z,96377.44
2023-12-17T20:02:28.075Z,96373.09
2023-12-17T20:04:55.319Z,96373.09
2023-12-17T20:07:22.227Z,96377.19
2023-12-17T20:09:49.787Z,96365.34
2023-12-17T20:12:16.703Z,96371.81
2023-12-17T20:14:43.735Z,96371.22
2023-12-17T20:17:10.508Z,96373.84
2023-12-17T20:19:38.558Z,96372.19
2023-12-17T20:22:05.514Z,96370.03
2023-12-17T20:24:32.381Z,96368.56
2023-12-17T20:26:59.328Z,96373.75
2023-12-17T20:29:26.091Z,96377.56
2023-12-17T20:32:11.591Z,96379.84
2023-12-17T20:34:39.717Z,96376.81
2023-12-17T20:37:06.563Z,96375.41
2023-12-17T20:39:33.980Z,96378.22
2023-12-17T20:42:00.822Z,96371.63
2023-12-17T20:44:28.199Z,96372.97
2023-12-17T20:46:55.497Z,96369.13
2023-12-17T20:49:22.713Z,96373.72
2023-12-17T20:51:49.594Z,96378.38
2023-12-17T20:54:16.873Z,96377.34
2023-12-17T20:56:43.916Z,96377.69
2023-12-17T20:59:11.241Z,96374.88
2023-12-17T21:01:38.060Z,96376.56
2023-12-17T21:04:05.973Z,96372.88
2023-12-17T21:06:32.889Z,96373.16
2023-12-17T21:09:01.526Z,96370.13
2023-12-17T21:11:29.401Z,96370.53
2023-12-17T21:17:18.420Z,96376.25
2023-12-17T21:19:46.732Z,96379.94
2023-12-17T21:22:14.019Z,96374.94
2023-12-17T21:24:41.039Z,96375.25
2023-12-17T21:27:20.998Z,96372.50
2023-12-17T21:29:48.078Z,96369.75
2023-12-17T21:32:16.230Z,96368.16
2023-12-17T21:34:44.119Z,96367.38
2023-12-17T21:37:11.016Z,96365.34
2023-12-17T21:39:38.160Z,96366.19
2023-12-17T21:42:06.319Z,96366.59
2023-12-17T21:44:33.486Z,96366.59
2023-12-17T21:47:00.378Z,96365.81
2023-12-17T21:49:28.111Z,96379.47
2023-12-17T21:52:06.251Z,96376.34
2023-12-17T21:54:34.608Z,96378.34
2023-12-17T21:57:17.257Z,96377.63
2023-12-17T21:59:46.957Z,96386.31
2023-12-17T22:02:13.904Z,96384.34
2023-12-17T22:04:46.737Z,96386.56
2023-12-17T22:07:13.886Z,96391.72
2023-12-17T22:09:40.889Z,96383.00
2023-12-17T22:12:08.073Z,96384.81
2023-12-17T22:14:35.301Z,96376.25
2023-12-17T22:17:02.538Z,96380.28
2023-12-17T22:19:29.877Z,96377.41
2023-12-17T22:21:57.381Z,96379.53
2023-12-17T22:24:24.314Z,96371.34
2023-12-17T22:26:51.786Z,96372.69
2023-12-17T22:29:19.719Z,96368.19
2023-12-17T22:31:46.786Z,96370.09
2023-12-17T22:34:13.845Z,96365.72
2023-12-17T22:36:41.123Z,96369.81
2023-12-17T22:39:09.194Z,96369.69
2023-12-17T22:41:38.778Z,96371.59
2023-12-17T22:44:08.405Z,96376.56
2023-12-17T22:47:13.362Z,96371.88
2023-12-17T22:49:40.488Z,96374.16
2023-12-17T22:52:08.341Z,96374.72
2023-12-17T22:54:35.965Z,96366.09
2023-12-17T22:57:03.531Z,96373.81
2023-12-17T22:59:33.968Z,96371.50
2023-12-17T23:02:00.788Z,96365.44
2023-12-17T23:04:28.781Z,96369.56
2023-12-17T23:06:56.231Z,96373.97
2023-12-17T23:09:23.630Z,96366.25
2023-12-17T23:11:51.607Z,96360.63
2023-12-17T23:14:18.722Z,96355.03
2023-12-17T23:16:45.636Z,96360.63
2023-12-17T23:19:13.136Z,96352.72
2023-12-17T23:21:40.026Z,96361.06
2023-12-17T23:24:10.015Z,96357.47
2023-12-17T23:26:49.319Z,96354.28
2023-12-17T23:29:16.343Z,96358.25
2023-12-17T23:31:44.936Z,96357.81
2023-12-17T23:34:12.151Z,96351.72
2023-12-17T23:36:39.555Z,96354.13
2023-12-17T23:39:06.443Z,96354.53
2023-12-17T23:41:33.348Z,96353.25
2023-12-17T23:44:00.202Z,96336.28
2023-12-17T23:46:27.012Z,96329.63
2023-12-17T23:48:54.924Z,96331.25
2023-12-17T23:51:22.156Z,96336.41
2023-12-17T23:53:48.975Z,96344.09
2023-12-17T23:56:18.554Z,96342.56
2023-12-17T23:58:45.837Z,96336.31
